Time,TemperatureF,DewpointF,PressureIn,WindDirection,WindDirectionDegrees,WindSpeedMPH,WindSpeedGustMPH,Humidity,HourlyPrecipIn,Conditions,Clouds,dailyrainin,SoftwareType,DateUTC
2013-01-29 00:09:00,44.4,39.6,30.10,WSW,247,0.0,-999.0,83,-99.99,,,0.00,Acu-Link.com,2013-01-29 05:09:00,
2013-01-29 00:24:00,43.9,39.1,30.10,SE,135,0.0,-999.0,83,-99.99,,,0.00,Acu-Link.com,2013-01-29 05:24:00,
2013-01-29 00:39:00,43.7,38.9,30.10,West,270,0.0,-999.0,83,-99.99,,,0.00,Acu-Link.com,2013-01-29 05:39:00,
2013-01-29 00:54:00,43.5,38.7,30.10,South,180,0.0,-999.0,83,-99.99,,,0.00,Acu-Link.com,2013-01-29 05:54:00,
2013-01-29 01:09:00,43.2,38.4,30.09,West,270,0.0,-999.0,83,-99.99,,,0.00,Acu-Link.com,2013-01-29 06:09:00,
2013-01-29 01:24:00,42.8,38.3,30.09,South,180,0.0,-999.0,84,-99.99,,,0.00,Acu-Link.com,2013-01-29 06:24:00,
2013-01-29 01:39:00,42.6,38.1,30.08,ENE,67,0.0,-999.0,84,-99.99,,,0.00,Acu-Link.com,2013-01-29 06:39:00,
2013-01-29 01:54:00,42.4,37.9,30.08,North,0,0.0,-999.0,84,-99.99,,,0.00,Acu-Link.com,2013-01-29 06:54:00,
2013-01-29 02:09:00,42.6,38.1,30.08,SSE,157,0.0,-999.0,84,-99.99,,,0.00,Acu-Link.com,2013-01-29 07:09:00,
2013-01-29 02:25:00,42.4,37.9,30.08,ENE,67,0.0,-999.0,84,-99.99,,,0.00,Acu-Link.com,2013-01-29 07:25:00,
2013-01-29 02:40:00,42.3,38.1,30.08,ENE,67,0.0,-999.0,85,-99.99,,,0.00,Acu-Link.com,2013-01-29 07:40:00,
2013-01-29 02:55:00,42.1,37.9,30.07,WNW,292,0.0,-999.0,85,-99.99,,,0.00,Acu-Link.com,2013-01-29 07:55:00,
2013-01-29 03:10:00,41.9,37.7,30.08,NNW,337,0.0,-999.0,85,-99.99,,,0.00,Acu-Link.com,2013-01-29 08:10:00,
2013-01-29 03:25:00,41.7,37.5,30.07,SSW,202,0.0,-999.0,85,-99.99,,,0.00,Acu-Link.com,2013-01-29 08:25:00,
2013-01-29 03:40:00,41.5,37.0,30.07,WSW,247,0.0,-999.0,84,-99.99,,,0.00,Acu-Link.com,2013-01-29 08:40:00,
2013-01-29 03:55:00,41.2,36.7,30.07,East,90,0.0,-999.0,84,-99.99,,,0.00,Acu-Link.com,2013-01-29 08:55:00,
2013-01-29 04:15:00,41.2,36.7,30.07,ESE,112,0.0,-999.0,84,-99.99,,,0.00,Acu-Link.com,2013-01-29 09:15:00,
2013-01-29 04:30:00,40.8,36.3,30.06,West,270,0.0,-999.0,84,-99.99,,,0.00,Acu-Link.com,2013-01-29 09:30:00,
2013-01-29 04:45:00,40.8,36.3,30.07,West,270,0.0,-999.0,84,-99.99,,,0.00,Acu-Link.com,2013-01-29 09:45:00,
2013-01-29 05:00:00,40.8,36.3,30.06,West,270,0.0,-999.0,84,-99.99,,,0.00,Acu-Link.com,2013-01-29 10:00:00,
2013-01-29 05:16:00,41.0,36.8,30.06,ESE,112,0.0,-999.0,85,-99.99,,,0.00,Acu-Link.com,2013-01-29 10:16:00,
2013-01-29 05:31:00,41.0,36.8,30.05,ENE,67,0.0,-999.0,85,-99.99,,,0.00,Acu-Link.com,2013-01-29 10:31:00,
2013-01-29 05:46:00,41.2,37.0,30.05,WNW,292,0.0,-999.0,85,-99.99,,,0.00,Acu-Link.com,2013-01-29 10:46:00,
2013-01-29 06:01:00,41.9,37.7,30.05,SW,225,0.0,-999.0,85,-99.99,,,0.00,Acu-Link.com,2013-01-29 11:01:00,
2013-01-29 06:16:00,42.6,38.4,30.06,WSW,247,0.0,-999.0,85,-99.99,,,0.00,Acu-Link.com,2013-01-29 11:16:00,
2013-01-29 06:31:00,43.0,39.1,30.05,ENE,67,0.0,-999.0,86,-99.99,,,0.00,Acu-Link.com,2013-01-29 11:31:00,
2013-01-29 06:46:00,43.0,39.1,30.05,ESE,112,0.0,-999.0,86,-99.99,,,0.00,Acu-Link.com,2013-01-29 11:46:00,
2013-01-29 07:01:00,43.0,39.1,30.05,West,270,0.0,-999.0,86,-99.99,,,0.00,Acu-Link.com,2013-01-29 12:01:00,
2013-01-29 07:17:00,43.3,39.4,30.05,NE,45,0.0,-999.0,86,-99.99,,,0.00,Acu-Link.com,2013-01-29 12:17:00,
2013-01-29 07:32:00,43.7,39.8,30.05,ENE,67,1.1,-999.0,86,-99.99,,,0.00,Acu-Link.com,2013-01-29 12:32:00,
2013-01-29 07:47:00,44.2,40.6,30.05,NE,45,0.0,-999.0,87,-99.99,,,0.00,Acu-Link.com,2013-01-29 12:47:00,
2013-01-29 08:02:00,45.0,41.4,30.05,West,270,0.0,-999.0,87,-99.99,,,0.00,Acu-Link.com,2013-01-29 13:02:00,
2013-01-29 08:17:00,45.5,41.9,30.04,NNE,22,0.0,-999.0,87,-99.99,,,0.00,Acu-Link.com,2013-01-29 13:17:00,
2013-01-29 08:32:00,46.6,42.9,30.04,West,270,0.0,-999.0,87,-99.99,,,0.00,Acu-Link.com,2013-01-29 13:32:00,
2013-01-29 08:47:00,48.4,44.7,30.04,East,90,0.0,-999.0,87,-99.99,,,0.00,Acu-Link.com,2013-01-29 13:47:00,
2013-01-29 09:02:00,50.2,46.5,30.04,SE,135,0.0,-999.0,87,-99.99,,,0.00,Acu-Link.com,2013-01-29 14:02:00,
2013-01-29 09:17:00,54.0,50.5,30.04,WNW,292,1.1,-999.0,88,-99.99,,,0.00,Acu-Link.com,2013-01-29 14:17:00,
2013-01-29 09:33:00,59.9,53.4,30.04,West,270,1.1,-999.0,79,-99.99,,,0.00,Acu-Link.com,2013-01-29 14:33:00,
2013-01-29 09:48:00,59.4,53.2,30.05,ESE,112,1.7,-999.0,80,-99.99,,,0.00,Acu-Link.com,2013-01-29 14:48:00,
2013-01-29 10:03:00,60.6,53.7,30.05,SW,225,1.7,-999.0,78,-99.99,,,0.00,Acu-Link.com,2013-01-29 15:03:00,
2013-01-29 10:18:00,61.7,54.1,30.04,WSW,247,1.7,-999.0,76,-99.99,,,0.00,Acu-Link.com,2013-01-29 15:18:00,
2013-01-29 10:33:00,62.6,54.2,30.05,North,0,1.7,-999.0,74,-99.99,,,0.00,Acu-Link.com,2013-01-29 15:33:00,
2013-01-29 10:48:00,64.9,54.9,30.05,SSW,202,1.7,-999.0,70,-99.99,,,0.00,Acu-Link.com,2013-01-29 15:48:00,
2013-01-29 11:03:00,65.5,55.1,30.04,West,270,1.7,-999.0,69,-99.99,,,0.00,Acu-Link.com,2013-01-29 16:03:00,
2013-01-29 11:18:00,66.7,55.8,30.04,SSW,202,2.2,-999.0,68,-99.99,,,0.00,Acu-Link.com,2013-01-29 16:18:00,
2013-01-29 11:33:00,67.8,55.6,30.04,SSW,202,2.2,-999.0,65,-99.99,,,0.00,Acu-Link.com,2013-01-29 16:33:00,
2013-01-29 11:49:00,68.2,55.5,30.03,South,180,1.7,-999.0,64,-99.99,,,0.00,Acu-Link.com,2013-01-29 16:49:00,
2013-01-29 12:04:00,67.3,55.5,30.03,WSW,247,1.7,-999.0,66,-99.99,,,0.00,Acu-Link.com,2013-01-29 17:04:00,
2013-01-29 12:19:00,66.9,54.7,30.02,SSE,157,0.0,-999.0,65,-99.99,,,0.00,Acu-Link.com,2013-01-29 17:19:00,
2013-01-29 12:34:00,66.9,55.2,30.00,SSW,202,2.2,-999.0,66,-99.99,,,0.00,Acu-Link.com,2013-01-29 17:34:00,
2013-01-29 12:49:00,69.4,54.9,29.99,SW,225,4.2,-999.0,60,-99.99,,,0.00,Acu-Link.com,2013-01-29 17:49:00,
2013-01-29 13:04:00,68.5,55.0,29.98,SE,135,0.0,-999.0,62,-99.99,,,0.00,Acu-Link.com,2013-01-29 18:04:00,
2013-01-29 13:19:00,71.4,55.8,29.97,WNW,292,2.7,-999.0,58,-99.99,,,0.00,Acu-Link.com,2013-01-29 18:19:00,
2013-01-29 13:34:00,71.6,55.5,29.97,NW,315,1.7,-999.0,57,-99.99,,,0.00,Acu-Link.com,2013-01-29 18:34:00,
2013-01-29 13:49:00,71.4,54.9,29.96,West,270,1.7,-999.0,56,-99.99,,,0.00,Acu-Link.com,2013-01-29 18:49:00,
2013-01-29 14:04:00,71.1,55.1,29.96,NNE,22,1.7,-999.0,57,-99.99,,,0.00,Acu-Link.com,2013-01-29 19:04:00,
2013-01-29 14:20:00,71.2,55.2,29.95,WSW,247,0.0,-999.0,57,-99.99,,,0.00,Acu-Link.com,2013-01-29 19:20:00,
2013-01-29 14:35:00,70.7,55.2,29.95,SW,225,1.7,-999.0,58,-99.99,,,0.00,Acu-Link.com,2013-01-29 19:35:00,
2013-01-29 14:50:00,72.3,55.7,29.95,WSW,247,1.7,-999.0,56,-99.99,,,0.00,Acu-Link.com,2013-01-29 19:50:00,
2013-01-29 15:05:00,70.3,55.3,29.94,West,270,2.2,-999.0,59,-99.99,,,0.00,Acu-Link.com,2013-01-29 20:05:00,
2013-01-29 15:20:00,71.2,55.2,29.93,SW,225,3.2,-999.0,57,-99.99,,,0.00,Acu-Link.com,2013-01-29 20:20:00,
2013-01-29 15:35:00,70.9,55.4,29.93,WSW,247,1.7,-999.0,58,-99.99,,,0.00,Acu-Link.com,2013-01-29 20:35:00,
2013-01-29 15:50:00,71.4,54.9,29.93,SE,135,1.7,-999.0,56,-99.99,,,0.00,Acu-Link.com,2013-01-29 20:50:00,
2013-01-29 16:05:00,70.5,54.5,29.93,South,180,2.7,-999.0,57,-99.99,,,0.00,Acu-Link.com,2013-01-29 21:05:00,
2013-01-29 16:20:00,70.3,54.8,29.92,WNW,292,0.0,-999.0,58,-99.99,,,0.00,Acu-Link.com,2013-01-29 21:20:00,
2013-01-29 16:36:00,69.8,54.3,29.91,SW,225,0.0,-999.0,58,-99.99,,,0.00,Acu-Link.com,2013-01-29 21:36:00,
2013-01-29 16:51:00,69.3,54.3,29.91,North,0,2.2,-999.0,59,-99.99,,,0.00,Acu-Link.com,2013-01-29 21:51:00,
2013-01-29 17:06:00,69.1,54.6,29.91,SSE,157,0.0,-999.0,60,-99.99,,,0.00,Acu-Link.com,2013-01-29 22:06:00,
2013-01-29 17:21:00,68.4,54.4,29.90,South,180,0.0,-999.0,61,-99.99,,,0.00,Acu-Link.com,2013-01-29 22:21:00,
2013-01-29 17:36:00,68.0,54.0,29.89,WSW,247,0.0,-999.0,61,-99.99,,,0.00,Acu-Link.com,2013-01-29 22:36:00,
2013-01-29 17:51:00,67.5,54.0,29.90,South,180,0.0,-999.0,62,-99.99,,,0.00,Acu-Link.com,2013-01-29 22:51:00,
2013-01-29 18:06:00,66.7,54.1,29.89,SW,225,0.0,-999.0,64,-99.99,,,0.00,Acu-Link.com,2013-01-29 23:06:00,
2013-01-29 18:21:00,66.2,54.1,29.90,East,90,0.0,-999.0,65,-99.99,,,0.00,Acu-Link.com,2013-01-29 23:21:00,
2013-01-29 18:36:00,65.7,54.0,29.90,NW,315,0.0,-999.0,66,-99.99,,,0.00,Acu-Link.com,2013-01-29 23:36:00,
2013-01-29 18:52:00,65.3,53.6,29.90,WSW,247,0.0,-999.0,66,-99.99,,,0.00,Acu-Link.com,2013-01-29 23:52:00,
2013-01-29 19:07:00,64.6,53.8,29.89,ESE,112,0.0,-999.0,68,-99.99,,,0.00,Acu-Link.com,2013-01-30 00:07:00,
2013-01-29 19:22:00,64.0,54.0,29.89,ESE,112,0.0,-999.0,70,-99.99,,,0.00,Acu-Link.com,2013-01-30 00:22:00,
2013-01-29 19:37:00,63.1,53.5,29.89,West,270,0.0,-999.0,71,-99.99,,,0.00,Acu-Link.com,2013-01-30 00:37:00,
2013-01-29 19:52:00,62.6,53.4,29.89,SSW,202,0.0,-999.0,72,-99.99,,,0.00,Acu-Link.com,2013-01-30 00:52:00,
2013-01-29 20:07:00,62.4,53.3,29.88,SW,225,0.0,-999.0,72,-99.99,,,0.00,Acu-Link.com,2013-01-30 01:07:00,
2013-01-29 20:22:00,62.2,53.4,29.88,South,180,0.0,-999.0,73,-99.99,,,0.00,Acu-Link.com,2013-01-30 01:22:00,
2013-01-29 20:37:00,62.1,53.7,29.88,ESE,112,0.0,-999.0,74,-99.99,,,0.00,Acu-Link.com,2013-01-30 01:37:00,
2013-01-29 20:52:00,62.2,53.8,29.88,WNW,292,0.0,-999.0,74,-99.99,,,0.00,Acu-Link.com,2013-01-30 01:52:00,
2013-01-29 21:08:00,62.4,54.0,29.88,ESE,112,0.0,-999.0,74,-99.99,,,0.00,Acu-Link.com,2013-01-30 02:08:00,
2013-01-29 21:23:00,62.8,54.4,29.88,SW,225,1.1,-999.0,74,-99.99,,,0.00,Acu-Link.com,2013-01-30 02:23:00,
2013-01-29 21:38:00,63.1,54.7,29.87,ESE,112,0.0,-999.0,74,-99.99,,,0.00,Acu-Link.com,2013-01-30 02:38:00,
2013-01-29 21:53:00,63.0,54.6,29.86,ESE,112,0.0,-999.0,74,-99.99,,,0.00,Acu-Link.com,2013-01-30 02:53:00,
2013-01-29 22:08:00,63.3,54.9,29.85,SSE,157,0.0,-999.0,74,-99.99,,,0.00,Acu-Link.com,2013-01-30 03:08:00,
2013-01-29 22:23:00,63.7,55.3,29.85,NNE,22,1.7,-999.0,74,-99.99,,,0.00,Acu-Link.com,2013-01-30 03:23:00,
2013-01-29 22:38:00,64.4,55.9,29.85,SSW,202,1.7,-999.0,74,-99.99,,,0.00,Acu-Link.com,2013-01-30 03:38:00,
2013-01-29 22:53:00,64.6,55.7,29.85,South,180,2.7,-999.0,73,-99.99,,,0.00,Acu-Link.com,2013-01-30 03:53:00,
2013-01-29 23:08:00,64.6,55.7,29.85,SSW,202,1.7,-999.0,73,-99.99,,,0.00,Acu-Link.com,2013-01-30 04:08:00,
2013-01-29 23:24:00,64.6,56.1,29.85,SSW,202,2.2,-999.0,74,-99.99,,,0.00,Acu-Link.com,2013-01-30 04:24:00,
2013-01-29 23:39:00,64.6,56.5,29.85,SW,225,2.2,-999.0,75,-99.99,,,0.00,Acu-Link.com,2013-01-30 04:39:00,
2013-01-29 23:54:00,64.2,56.1,29.84,SSE,157,2.2,-999.0,75,-99.99,,,0.00,Acu-Link.com,2013-01-30 04:54:00,